sensor_id;sensor_type;location;lat;lon;timestamp;P1;durP1;ratioP1;P2;durP2;ratioP2
32874;SDS011;40468;42.128;24.750;2023-05-07T00:00:03;8.77;;;5.00;;
32874;SDS011;40468;42.128;24.750;2023-05-07T00:01:39;6.15;;;4.53;;
32874;SDS011;40468;42.128;24.750;2023-05-07T00:03:11;14.98;;;5.18;;
32874;SDS011;40468;42.128;24.750;2023-05-07T00:04:44;9.13;;;5.23;;
32874;SDS011;40468;42.128;24.750;2023-05-07T00:06:16;10.88;;;5.47;;
32874;SDS011;40468;42.128;24.750;2023-05-07T00:07:47;11.35;;;4.88;;
32874;SDS011;40468;42.128;24.750;2023-05-07T00:09:18;7.63;;;5.05;;
32874;SDS011;40468;42.128;24.750;2023-05-07T00:10:50;9.25;;;5.18;;
32874;SDS011;40468;42.128;24.750;2023-05-07T00:12:21;13.15;;;4.78;;
32874;SDS011;40468;42.128;24.750;2023-05-07T00:13:53;8.88;;;5.20;;
32874;SDS011;40468;42.128;24.750;2023-05-07T00:15:24;7.45;;;4.72;;
32874;SDS011;40468;42.128;24.750;2023-05-07T00:16:58;9.43;;;4.50;;
32874;SDS011;40468;42.128;24.750;2023-05-07T00:18:28;7.32;;;4.55;;
32874;SDS011;40468;42.128;24.750;2023-05-07T00:20:00;6.43;;;4.50;;
32874;SDS011;40468;42.128;24.750;2023-05-07T00:21:33;7.18;;;4.90;;
32874;SDS011;40468;42.128;24.750;2023-05-07T00:23:05;9.15;;;4.13;;
32874;SDS011;40468;42.128;24.750;2023-05-07T00:24:36;8.60;;;4.30;;
32874;SDS011;40468;42.128;24.750;2023-05-07T00:26:08;7.05;;;4.57;;
32874;SDS011;40468;42.128;24.750;2023-05-07T00:27:40;8.48;;;4.45;;
32874;SDS011;40468;42.128;24.750;2023-05-07T00:29:11;10.07;;;4.65;;
32874;SDS011;40468;42.128;24.750;2023-05-07T00:30:43;6.55;;;4.28;;
32874;SDS011;40468;42.128;24.750;2023-05-07T00:32:16;7.50;;;3.92;;
32874;SDS011;40468;42.128;24.750;2023-05-07T00:33:48;9.68;;;4.30;;
32874;SDS011;40468;42.128;24.750;2023-05-07T00:35:20;6.90;;;4.13;;
32874;SDS011;40468;42.128;24.750;2023-05-07T00:36:52;9.32;;;3.90;;
32874;SDS011;40468;42.128;24.750;2023-05-07T00:38:24;6.57;;;3.95;;
32874;SDS011;40468;42.128;24.750;2023-05-07T00:39:56;8.13;;;3.88;;
32874;SDS011;40468;42.128;24.750;2023-05-07T00:41:27;10.50;;;4.05;;
32874;SDS011;40468;42.128;24.750;2023-05-07T00:44:32;6.35;;;3.80;;
32874;SDS011;40468;42.128;24.750;2023-05-07T00:46:04;6.32;;;3.65;;
32874;SDS011;40468;42.128;24.750;2023-05-07T00:47:38;7.25;;;4.00;;
32874;SDS011;40468;42.128;24.750;2023-05-07T00:49:09;7.35;;;3.70;;
32874;SDS011;40468;42.128;24.750;2023-05-07T00:50:41;7.38;;;4.30;;
32874;SDS011;40468;42.128;24.750;2023-05-07T00:52:14;8.30;;;4.20;;
32874;SDS011;40468;42.128;24.750;2023-05-07T00:53:47;7.07;;;4.43;;
32874;SDS011;40468;42.128;24.750;2023-05-07T00:55:18;8.55;;;4.28;;
32874;SDS011;40468;42.128;24.750;2023-05-07T00:56:51;8.27;;;4.32;;
32874;SDS011;40468;42.128;24.750;2023-05-07T00:58:23;6.75;;;3.60;;
32874;SDS011;40468;42.128;24.750;2023-05-07T00:59:55;6.25;;;3.50;;
32874;SDS011;40468;42.128;24.750;2023-05-07T01:01:27;7.60;;;3.78;;
32874;SDS011;40468;42.128;24.750;2023-05-07T01:03:01;8.60;;;3.83;;
32874;SDS011;40468;42.128;24.750;2023-05-07T01:04:33;12.30;;;3.95;;
32874;SDS011;40468;42.128;24.750;2023-05-07T01:06:05;9.25;;;3.95;;
32874;SDS011;40468;42.128;24.750;2023-05-07T01:07:39;10.93;;;4.00;;
32874;SDS011;40468;42.128;24.750;2023-05-07T01:09:11;8.98;;;3.70;;
32874;SDS011;40468;42.128;24.750;2023-05-07T01:10:43;9.32;;;3.70;;
32874;SDS011;40468;42.128;24.750;2023-05-07T01:12:16;7.95;;;3.88;;
32874;SDS011;40468;42.128;24.750;2023-05-07T01:13:47;5.72;;;3.42;;
32874;SDS011;40468;42.128;24.750;2023-05-07T01:15:21;8.35;;;4.05;;
32874;SDS011;40468;42.128;24.750;2023-05-07T01:16:53;8.18;;;4.43;;
32874;SDS011;40468;42.128;24.750;2023-05-07T01:18:26;7.53;;;4.40;;
32874;SDS011;40468;42.128;24.750;2023-05-07T01:20:00;9.60;;;4.30;;
32874;SDS011;40468;42.128;24.750;2023-05-07T01:21:32;9.75;;;3.83;;
32874;SDS011;40468;42.128;24.750;2023-05-07T01:24:38;7.50;;;3.90;;
32874;SDS011;40468;42.128;24.750;2023-05-07T01:26:09;6.43;;;3.95;;
32874;SDS011;40468;42.128;24.750;2023-05-07T01:27:41;8.27;;;4.40;;
32874;SDS011;40468;42.128;24.750;2023-05-07T01:29:11;8.73;;;3.85;;
32874;SDS011;40468;42.128;24.750;2023-05-07T01:30:43;8.98;;;3.95;;
32874;SDS011;40468;42.128;24.750;2023-05-07T01:32:18;8.48;;;4.43;;
32874;SDS011;40468;42.128;24.750;2023-05-07T01:33:53;9.30;;;4.53;;
32874;SDS011;40468;42.128;24.750;2023-05-07T01:35:29;7.78;;;3.75;;
32874;SDS011;40468;42.128;24.750;2023-05-07T01:37:05;9.13;;;4.10;;
32874;SDS011;40468;42.128;24.750;2023-05-07T01:38:39;7.00;;;4.55;;
32874;SDS011;40468;42.128;24.750;2023-05-07T01:40:12;7.00;;;3.90;;
32874;SDS011;40468;42.128;24.750;2023-05-07T01:41:45;8.17;;;3.90;;
32874;SDS011;40468;42.128;24.750;2023-05-07T01:43:17;13.03;;;4.53;;
32874;SDS011;40468;42.128;24.750;2023-05-07T01:44:50;11.23;;;4.47;;
32874;SDS011;40468;42.128;24.750;2023-05-07T01:46:21;10.02;;;4.25;;
32874;SDS011;40468;42.128;24.750;2023-05-07T01:47:53;8.48;;;4.00;;
32874;SDS011;40468;42.128;24.750;2023-05-07T01:49:26;7.97;;;4.50;;
32874;SDS011;40468;42.128;24.750;2023-05-07T01:50:59;8.43;;;5.00;;
32874;SDS011;40468;42.128;24.750;2023-05-07T01:52:31;6.63;;;3.95;;
32874;SDS011;40468;42.128;24.750;2023-05-07T01:54:05;5.90;;;4.18;;
32874;SDS011;40468;42.128;24.750;2023-05-07T01:55:38;6.57;;;4.18;;
32874;SDS011;40468;42.128;24.750;2023-05-07T01:57:10;10.55;;;3.92;;
32874;SDS011;40468;42.128;24.750;2023-05-07T01:58:42;9.13;;;4.00;;
32874;SDS011;40468;42.128;24.750;2023-05-07T02:00:13;9.60;;;5.07;;
32874;SDS011;40468;42.128;24.750;2023-05-07T02:01:45;7.55;;;4.35;;
32874;SDS011;40468;42.128;24.750;2023-05-07T02:03:17;7.70;;;4.10;;
32874;SDS011;40468;42.128;24.750;2023-05-07T02:04:48;8.75;;;3.95;;
32874;SDS011;40468;42.128;24.750;2023-05-07T02:06:20;7.45;;;4.40;;
32874;SDS011;40468;42.128;24.750;2023-05-07T02:07:51;8.15;;;4.35;;
32874;SDS011;40468;42.128;24.750;2023-05-07T02:09:24;9.07;;;4.35;;
32874;SDS011;40468;42.128;24.750;2023-05-07T02:10:56;10.07;;;4.80;;
32874;SDS011;40468;42.128;24.750;2023-05-07T02:12:28;7.68;;;4.10;;
32874;SDS011;40468;42.128;24.750;2023-05-07T02:14:00;6.95;;;4.57;;
32874;SDS011;40468;42.128;24.750;2023-05-07T02:15:32;10.60;;;4.85;;
32874;SDS011;40468;42.128;24.750;2023-05-07T02:17:03;7.28;;;4.68;;
32874;SDS011;40468;42.128;24.750;2023-05-07T02:18:35;9.73;;;4.18;;
32874;SDS011;40468;42.128;24.750;2023-05-07T02:20:06;5.82;;;3.92;;
32874;SDS011;40468;42.128;24.750;2023-05-07T02:21:43;10.43;;;4.97;;
32874;SDS011;40468;42.128;24.750;2023-05-07T02:23:15;8.90;;;4.95;;
32874;SDS011;40468;42.128;24.750;2023-05-07T02:24:48;7.47;;;4.57;;
32874;SDS011;40468;42.128;24.750;2023-05-07T02:26:20;8.40;;;4.55;;
32874;SDS011;40468;42.128;24.750;2023-05-07T02:27:52;9.33;;;5.10;;
32874;SDS011;40468;42.128;24.750;2023-05-07T02:29:23;7.25;;;5.03;;
32874;SDS011;40468;42.128;24.750;2023-05-07T02:30:55;9.50;;;5.18;;
32874;SDS011;40468;42.128;24.750;2023-05-07T02:32:28;12.35;;;5.50;;
32874;SDS011;40468;42.128;24.750;2023-05-07T02:34:00;11.00;;;5.07;;
32874;SDS011;40468;42.128;24.750;2023-05-07T02:35:32;6.90;;;4.65;;
32874;SDS011;40468;42.128;24.750;2023-05-07T02:37:03;8.82;;;4.88;;
32874;SDS011;40468;42.128;24.750;2023-05-07T02:38:35;9.32;;;4.95;;
32874;SDS011;40468;42.128;24.750;2023-05-07T02:40:09;12.15;;;5.30;;
32874;SDS011;40468;42.128;24.750;2023-05-07T02:41:42;13.70;;;5.72;;
32874;SDS011;40468;42.128;24.750;2023-05-07T02:43:14;7.10;;;4.68;;
32874;SDS011;40468;42.128;24.750;2023-05-07T02:44:46;8.65;;;4.90;;
32874;SDS011;40468;42.128;24.750;2023-05-07T02:46:18;9.85;;;5.15;;
32874;SDS011;40468;42.128;24.750;2023-05-07T02:47:50;11.15;;;4.90;;
32874;SDS011;40468;42.128;24.750;2023-05-07T02:49:21;11.75;;;5.70;;
32874;SDS011;40468;42.128;24.750;2023-05-07T02:50:53;10.38;;;5.63;;
32874;SDS011;40468;42.128;24.750;2023-05-07T02:52:25;8.90;;;5.32;;
32874;SDS011;40468;42.128;24.750;2023-05-07T02:53:57;8.15;;;5.15;;
32874;SDS011;40468;42.128;24.750;2023-05-07T02:57:02;8.55;;;4.88;;
32874;SDS011;40468;42.128;24.750;2023-05-07T02:58:34;11.10;;;5.45;;
32874;SDS011;40468;42.128;24.750;2023-05-07T03:00:10;9.35;;;5.80;;
32874;SDS011;40468;42.128;24.750;2023-05-07T03:01:42;8.80;;;5.75;;
32874;SDS011;40468;42.128;24.750;2023-05-07T03:03:15;14.73;;;6.20;;
32874;SDS011;40468;42.128;24.750;2023-05-07T03:04:46;12.73;;;6.03;;
32874;SDS011;40468;42.128;24.750;2023-05-07T03:06:18;11.93;;;6.32;;
32874;SDS011;40468;42.128;24.750;2023-05-07T03:07:50;10.45;;;5.90;;
32874;SDS011;40468;42.128;24.750;2023-05-07T03:09:20;13.88;;;5.72;;
32874;SDS011;40468;42.128;24.750;2023-05-07T03:10:54;10.88;;;6.50;;
32874;SDS011;40468;42.128;24.750;2023-05-07T03:12:25;8.98;;;6.47;;
32874;SDS011;40468;42.128;24.750;2023-05-07T03:13:57;12.48;;;6.38;;
32874;SDS011;40468;42.128;24.750;2023-05-07T03:15:29;10.07;;;6.57;;
32874;SDS011;40468;42.128;24.750;2023-05-07T03:17:00;15.55;;;6.47;;
32874;SDS011;40468;42.128;24.750;2023-05-07T03:18:32;14.90;;;6.28;;
32874;SDS011;40468;42.128;24.750;2023-05-07T03:20:03;12.20;;;6.78;;
32874;SDS011;40468;42.128;24.750;2023-05-07T03:21:36;14.30;;;6.45;;
32874;SDS011;40468;42.128;24.750;2023-05-07T03:23:08;9.77;;;6.22;;
32874;SDS011;40468;42.128;24.750;2023-05-07T03:24:39;10.63;;;6.22;;
32874;SDS011;40468;42.128;24.750;2023-05-07T03:26:12;18.25;;;7.38;;
32874;SDS011;40468;42.128;24.750;2023-05-07T03:27:44;11.35;;;6.97;;
32874;SDS011;40468;42.128;24.750;2023-05-07T03:29:15;10.88;;;6.85;;
32874;SDS011;40468;42.128;24.750;2023-05-07T03:30:47;11.00;;;6.65;;
32874;SDS011;40468;42.128;24.750;2023-05-07T03:32:19;10.88;;;6.47;;
32874;SDS011;40468;42.128;24.750;2023-05-07T03:33:52;14.10;;;7.53;;
32874;SDS011;40468;42.128;24.750;2023-05-07T03:35:24;12.88;;;7.20;;
32874;SDS011;40468;42.128;24.750;2023-05-07T03:36:55;13.65;;;7.28;;
32874;SDS011;40468;42.128;24.750;2023-05-07T03:38:27;12.90;;;7.10;;
32874;SDS011;40468;42.128;24.750;2023-05-07T03:39:58;10.65;;;7.38;;
32874;SDS011;40468;42.128;24.750;2023-05-07T03:41:31;10.48;;;6.53;;
32874;SDS011;40468;42.128;24.750;2023-05-07T03:43:03;12.40;;;7.00;;
32874;SDS011;40468;42.128;24.750;2023-05-07T03:44:35;12.75;;;7.38;;
32874;SDS011;40468;42.128;24.750;2023-05-07T03:46:08;12.93;;;7.60;;
32874;SDS011;40468;42.128;24.750;2023-05-07T03:47:40;11.73;;;7.57;;
32874;SDS011;40468;42.128;24.750;2023-05-07T03:49:12;16.38;;;8.13;;
32874;SDS011;40468;42.128;24.750;2023-05-07T03:50:44;13.35;;;7.50;;
32874;SDS011;40468;42.128;24.750;2023-05-07T03:52:16;13.52;;;7.18;;
32874;SDS011;40468;42.128;24.750;2023-05-07T03:53:52;14.02;;;8.38;;
32874;SDS011;40468;42.128;24.750;2023-05-07T03:55:24;12.93;;;7.22;;
32874;SDS011;40468;42.128;24.750;2023-05-07T03:56:58;12.00;;;8.20;;
32874;SDS011;40468;42.128;24.750;2023-05-07T03:58:30;11.85;;;7.45;;
32874;SDS011;40468;42.128;24.750;2023-05-07T04:00:02;14.18;;;7.78;;
32874;SDS011;40468;42.128;24.750;2023-05-07T04:01:35;12.82;;;7.40;;
32874;SDS011;40468;42.128;24.750;2023-05-07T04:03:06;13.45;;;8.15;;
32874;SDS011;40468;42.128;24.750;2023-05-07T04:04:38;11.57;;;7.40;;
32874;SDS011;40468;42.128;24.750;2023-05-07T04:06:10;12.85;;;7.53;;
32874;SDS011;40468;42.128;24.750;2023-05-07T04:07:42;13.02;;;7.35;;
32874;SDS011;40468;42.128;24.750;2023-05-07T04:09:14;11.18;;;7.20;;
32874;SDS011;40468;42.128;24.750;2023-05-07T04:10:46;14.35;;;7.38;;
32874;SDS011;40468;42.128;24.750;2023-05-07T04:12:19;15.98;;;6.90;;
32874;SDS011;40468;42.128;24.750;2023-05-07T04:13:51;11.00;;;6.72;;
32874;SDS011;40468;42.128;24.750;2023-05-07T04:15:21;10.70;;;6.85;;
32874;SDS011;40468;42.128;24.750;2023-05-07T04:16:53;9.45;;;6.60;;
32874;SDS011;40468;42.128;24.750;2023-05-07T04:18:25;14.75;;;6.72;;
32874;SDS011;40468;42.128;24.750;2023-05-07T04:19:56;11.63;;;6.78;;
32874;SDS011;40468;42.128;24.750;2023-05-07T04:21:28;9.90;;;6.32;;
32874;SDS011;40468;42.128;24.750;2023-05-07T04:23:00;11.20;;;7.18;;
32874;SDS011;40468;42.128;24.750;2023-05-07T04:24:32;13.82;;;6.65;;
32874;SDS011;40468;42.128;24.750;2023-05-07T04:26:04;9.68;;;7.05;;
32874;SDS011;40468;42.128;24.750;2023-05-07T04:27:36;13.63;;;7.07;;
32874;SDS011;40468;42.128;24.750;2023-05-07T04:29:08;9.95;;;6.38;;
32874;SDS011;40468;42.128;24.750;2023-05-07T04:30:40;12.18;;;6.13;;
32874;SDS011;40468;42.128;24.750;2023-05-07T04:32:11;12.68;;;7.18;;
32874;SDS011;40468;42.128;24.750;2023-05-07T04:33:43;12.15;;;6.80;;
32874;SDS011;40468;42.128;24.750;2023-05-07T04:35:15;9.63;;;7.00;;
32874;SDS011;40468;42.128;24.750;2023-05-07T04:36:47;14.57;;;6.43;;
32874;SDS011;40468;42.128;24.750;2023-05-07T04:38:19;12.32;;;6.68;;
32874;SDS011;40468;42.128;24.750;2023-05-07T04:39:51;9.88;;;6.80;;
32874;SDS011;40468;42.128;24.750;2023-05-07T04:41:23;11.13;;;7.13;;
32874;SDS011;40468;42.128;24.750;2023-05-07T04:42:56;15.13;;;6.70;;
32874;SDS011;40468;42.128;24.750;2023-05-07T04:44:28;12.85;;;5.93;;
32874;SDS011;40468;42.128;24.750;2023-05-07T04:46:01;8.45;;;5.82;;
32874;SDS011;40468;42.128;24.750;2023-05-07T04:47:33;8.38;;;6.22;;
32874;SDS011;40468;42.128;24.750;2023-05-07T04:49:03;10.30;;;6.47;;
32874;SDS011;40468;42.128;24.750;2023-05-07T04:50:35;10.82;;;7.10;;
32874;SDS011;40468;42.128;24.750;2023-05-07T04:52:06;13.88;;;6.32;;
32874;SDS011;40468;42.128;24.750;2023-05-07T04:53:38;11.65;;;6.50;;
32874;SDS011;40468;42.128;24.750;2023-05-07T04:55:09;14.23;;;6.63;;
32874;SDS011;40468;42.128;24.750;2023-05-07T04:56:41;10.68;;;6.80;;
32874;SDS011;40468;42.128;24.750;2023-05-07T04:58:15;12.00;;;6.28;;
32874;SDS011;40468;42.128;24.750;2023-05-07T04:59:45;11.55;;;6.45;;
32874;SDS011;40468;42.128;24.750;2023-05-07T05:01:17;14.98;;;5.97;;
32874;SDS011;40468;42.128;24.750;2023-05-07T05:02:49;16.40;;;7.18;;
32874;SDS011;40468;42.128;24.750;2023-05-07T05:04:21;13.88;;;6.25;;
32874;SDS011;40468;42.128;24.750;2023-05-07T05:05:52;11.15;;;5.63;;
32874;SDS011;40468;42.128;24.750;2023-05-07T05:07:24;9.45;;;5.57;;
32874;SDS011;40468;42.128;24.750;2023-05-07T05:08:56;11.60;;;5.65;;
32874;SDS011;40468;42.128;24.750;2023-05-07T05:10:28;9.43;;;5.63;;
32874;SDS011;40468;42.128;24.750;2023-05-07T05:11:59;11.00;;;4.72;;
32874;SDS011;40468;42.128;24.750;2023-05-07T05:13:32;10.75;;;5.30;;
32874;SDS011;40468;42.128;24.750;2023-05-07T05:15:04;9.23;;;5.40;;
32874;SDS011;40468;42.128;24.750;2023-05-07T05:16:37;7.30;;;5.50;;
32874;SDS011;40468;42.128;24.750;2023-05-07T05:18:09;9.10;;;4.50;;
32874;SDS011;40468;42.128;24.750;2023-05-07T05:19:41;7.25;;;4.80;;
32874;SDS011;40468;42.128;24.750;2023-05-07T05:21:12;11.07;;;5.03;;
32874;SDS011;40468;42.128;24.750;2023-05-07T05:22:44;10.32;;;5.10;;
32874;SDS011;40468;42.128;24.750;2023-05-07T05:24:16;12.77;;;4.43;;
32874;SDS011;40468;42.128;24.750;2023-05-07T05:25:48;10.40;;;4.70;;
32874;SDS011;40468;42.128;24.750;2023-05-07T05:27:20;6.25;;;4.63;;
32874;SDS011;40468;42.128;24.750;2023-05-07T05:28:53;7.10;;;4.78;;
32874;SDS011;40468;42.128;24.750;2023-05-07T05:31:57;8.30;;;4.43;;
32874;SDS011;40468;42.128;24.750;2023-05-07T05:33:29;6.10;;;4.25;;
32874;SDS011;40468;42.128;24.750;2023-05-07T05:35:00;14.65;;;5.05;;
32874;SDS011;40468;42.128;24.750;2023-05-07T05:36:31;10.77;;;4.85;;
32874;SDS011;40468;42.128;24.750;2023-05-07T05:38:03;11.52;;;4.95;;
32874;SDS011;40468;42.128;24.750;2023-05-07T05:39:35;9.93;;;4.88;;
32874;SDS011;40468;42.128;24.750;2023-05-07T05:41:07;7.70;;;5.20;;
32874;SDS011;40468;42.128;24.750;2023-05-07T05:42:39;9.63;;;4.70;;
32874;SDS011;40468;42.128;24.750;2023-05-07T05:44:12;7.80;;;5.13;;
32874;SDS011;40468;42.128;24.750;2023-05-07T05:45:43;14.00;;;5.40;;
32874;SDS011;40468;42.128;24.750;2023-05-07T05:47:15;6.25;;;4.57;;
32874;SDS011;40468;42.128;24.750;2023-05-07T05:48:46;8.98;;;5.20;;
32874;SDS011;40468;42.128;24.750;2023-05-07T05:50:18;8.77;;;4.50;;
32874;SDS011;40468;42.128;24.750;2023-05-07T05:51:49;10.82;;;4.65;;
32874;SDS011;40468;42.128;24.750;2023-05-07T05:53:21;11.38;;;4.82;;
32874;SDS011;40468;42.128;24.750;2023-05-07T05:54:53;9.05;;;4.72;;
32874;SDS011;40468;42.128;24.750;2023-05-07T05:56:25;9.02;;;4.60;;
32874;SDS011;40468;42.128;24.750;2023-05-07T05:57:57;8.75;;;4.72;;
32874;SDS011;40468;42.128;24.750;2023-05-07T05:59:30;8.07;;;4.00;;
32874;SDS011;40468;42.128;24.750;2023-05-07T06:02:33;7.80;;;4.38;;
32874;SDS011;40468;42.128;24.750;2023-05-07T06:04:05;10.57;;;4.18;;
32874;SDS011;40468;42.128;24.750;2023-05-07T06:05:36;7.93;;;4.30;;
32874;SDS011;40468;42.128;24.750;2023-05-07T06:07:08;9.27;;;4.53;;
32874;SDS011;40468;42.128;24.750;2023-05-07T06:08:40;6.03;;;4.28;;
32874;SDS011;40468;42.128;24.750;2023-05-07T06:10:13;8.27;;;4.63;;
32874;SDS011;40468;42.128;24.750;2023-05-07T06:11:44;8.63;;;4.72;;
32874;SDS011;40468;42.128;24.750;2023-05-07T06:13:15;11.13;;;4.65;;
32874;SDS011;40468;42.128;24.750;2023-05-07T06:14:49;12.95;;;4.80;;
32874;SDS011;40468;42.128;24.750;2023-05-07T06:17:52;9.93;;;4.18;;
32874;SDS011;40468;42.128;24.750;2023-05-07T06:19:26;10.88;;;4.63;;
32874;SDS011;40468;42.128;24.750;2023-05-07T06:20:58;7.05;;;4.30;;
32874;SDS011;40468;42.128;24.750;2023-05-07T06:22:30;10.13;;;4.50;;
32874;SDS011;40468;42.128;24.750;2023-05-07T06:24:02;8.32;;;5.20;;
32874;SDS011;40468;42.128;24.750;2023-05-07T06:25:33;13.75;;;4.38;;
32874;SDS011;40468;42.128;24.750;2023-05-07T06:27:05;6.97;;;4.70;;
32874;SDS011;40468;42.128;24.750;2023-05-07T06:28:37;9.55;;;4.95;;
32874;SDS011;40468;42.128;24.750;2023-05-07T06:30:11;8.90;;;5.32;;
32874;SDS011;40468;42.128;24.750;2023-05-07T06:31:43;8.90;;;5.43;;
32874;SDS011;40468;42.128;24.750;2023-05-07T06:33:15;13.95;;;5.20;;
32874;SDS011;40468;42.128;24.750;2023-05-07T06:34:47;9.48;;;4.82;;
32874;SDS011;40468;42.128;24.750;2023-05-07T06:36:18;8.73;;;4.03;;
32874;SDS011;40468;42.128;24.750;2023-05-07T06:37:50;11.88;;;4.47;;
32874;SDS011;40468;42.128;24.750;2023-05-07T06:39:22;6.13;;;4.68;;
32874;SDS011;40468;42.128;24.750;2023-05-07T06:40:54;6.60;;;4.72;;
32874;SDS011;40468;42.128;24.750;2023-05-07T06:42:27;11.80;;;4.00;;
32874;SDS011;40468;42.128;24.750;2023-05-07T06:43:59;12.35;;;4.80;;
32874;SDS011;40468;42.128;24.750;2023-05-07T06:45:31;9.18;;;4.97;;
32874;SDS011;40468;42.128;24.750;2023-05-07T06:47:03;7.65;;;4.88;;
32874;SDS011;40468;42.128;24.750;2023-05-07T06:48:35;11.82;;;4.63;;
32874;SDS011;40468;42.128;24.750;2023-05-07T06:50:07;9.20;;;4.57;;
32874;SDS011;40468;42.128;24.750;2023-05-07T06:51:39;9.02;;;5.32;;
32874;SDS011;40468;42.128;24.750;2023-05-07T06:53:11;11.70;;;4.85;;
32874;SDS011;40468;42.128;24.750;2023-05-07T06:54:43;7.90;;;4.40;;
32874;SDS011;40468;42.128;24.750;2023-05-07T06:56:15;9.05;;;4.47;;
32874;SDS011;40468;42.128;24.750;2023-05-07T06:57:47;7.22;;;4.20;;
32874;SDS011;40468;42.128;24.750;2023-05-07T06:59:19;8.02;;;4.75;;
32874;SDS011;40468;42.128;24.750;2023-05-07T07:00:52;8.80;;;4.18;;
32874;SDS011;40468;42.128;24.750;2023-05-07T07:03:55;9.07;;;4.40;;
32874;SDS011;40468;42.128;24.750;2023-05-07T07:05:27;10.77;;;4.68;;
32874;SDS011;40468;42.128;24.750;2023-05-07T07:06:59;11.50;;;4.85;;
32874;SDS011;40468;42.128;24.750;2023-05-07T07:08:31;9.10;;;4.70;;
32874;SDS011;40468;42.128;24.750;2023-05-07T07:10:03;11.45;;;4.53;;
32874;SDS011;40468;42.128;24.750;2023-05-07T07:11:35;6.82;;;4.63;;
32874;SDS011;40468;42.128;24.750;2023-05-07T07:13:07;8.45;;;4.45;;
32874;SDS011;40468;42.128;24.750;2023-05-07T07:14:39;7.30;;;4.30;;
32874;SDS011;40468;42.128;24.750;2023-05-07T07:16:12;8.27;;;4.75;;
32874;SDS011;40468;42.128;24.750;2023-05-07T07:17:44;9.45;;;4.60;;
32874;SDS011;40468;42.128;24.750;2023-05-07T07:19:16;9.05;;;4.30;;
32874;SDS011;40468;42.128;24.750;2023-05-07T07:20:47;10.35;;;4.95;;
32874;SDS011;40468;42.128;24.750;2023-05-07T07:22:19;10.48;;;4.85;;
32874;SDS011;40468;42.128;24.750;2023-05-07T07:23:51;6.43;;;4.25;;
32874;SDS011;40468;42.128;24.750;2023-05-07T07:25:23;7.65;;;5.07;;
32874;SDS011;40468;42.128;24.750;2023-05-07T07:26:54;10.00;;;4.28;;
32874;SDS011;40468;42.128;24.750;2023-05-07T07:28:28;6.55;;;3.97;;
32874;SDS011;40468;42.128;24.750;2023-05-07T07:29:59;8.13;;;4.15;;
32874;SDS011;40468;42.128;24.750;2023-05-07T07:31:33;14.35;;;4.90;;
32874;SDS011;40468;42.128;24.750;2023-05-07T07:34:36;8.38;;;4.30;;
32874;SDS011;40468;42.128;24.750;2023-05-07T07:36:09;8.27;;;4.50;;
32874;SDS011;40468;42.128;24.750;2023-05-07T07:37:41;6.93;;;4.43;;
32874;SDS011;40468;42.128;24.750;2023-05-07T07:39:13;7.75;;;4.30;;
32874;SDS011;40468;42.128;24.750;2023-05-07T07:40:43;7.43;;;4.32;;
32874;SDS011;40468;42.128;24.750;2023-05-07T07:42:16;7.63;;;4.68;;
32874;SDS011;40468;42.128;24.750;2023-05-07T07:43:47;8.85;;;4.63;;
32874;SDS011;40468;42.128;24.750;2023-05-07T07:45:18;12.32;;;4.43;;
32874;SDS011;40468;42.128;24.750;2023-05-07T07:46:52;11.15;;;4.03;;
32874;SDS011;40468;42.128;24.750;2023-05-07T07:49:55;6.93;;;4.50;;
32874;SDS011;40468;42.128;24.750;2023-05-07T07:51:27;6.78;;;4.28;;
32874;SDS011;40468;42.128;24.750;2023-05-07T07:53:00;8.50;;;4.18;;
32874;SDS011;40468;42.128;24.750;2023-05-07T07:54:32;10.18;;;4.28;;
32874;SDS011;40468;42.128;24.750;2023-05-07T07:56:04;10.68;;;4.30;;
32874;SDS011;40468;42.128;24.750;2023-05-07T07:57:36;7.60;;;4.15;;
32874;SDS011;40468;42.128;24.750;2023-05-07T07:59:08;9.93;;;4.40;;
32874;SDS011;40468;42.128;24.750;2023-05-07T08:00:40;13.10;;;4.82;;
32874;SDS011;40468;42.128;24.750;2023-05-07T08:02:13;12.38;;;6.95;;
32874;SDS011;40468;42.128;24.750;2023-05-07T08:03:45;11.80;;;4.53;;
32874;SDS011;40468;42.128;24.750;2023-05-07T08:05:17;7.80;;;3.92;;
32874;SDS011;40468;42.128;24.750;2023-05-07T08:06:49;7.00;;;3.92;;
32874;SDS011;40468;42.128;24.750;2023-05-07T08:08:21;9.05;;;5.07;;
32874;SDS011;40468;42.128;24.750;2023-05-07T08:09:53;8.82;;;4.30;;
32874;SDS011;40468;42.128;24.750;2023-05-07T08:11:25;6.60;;;4.13;;
32874;SDS011;40468;42.128;24.750;2023-05-07T08:12:57;9.23;;;3.97;;
32874;SDS011;40468;42.128;24.750;2023-05-07T08:14:29;9.05;;;4.30;;
32874;SDS011;40468;42.128;24.750;2023-05-07T08:16:01;7.50;;;3.55;;
32874;SDS011;40468;42.128;24.750;2023-05-07T08:17:35;6.80;;;3.60;;
32874;SDS011;40468;42.128;24.750;2023-05-07T08:20:38;8.18;;;3.53;;
32874;SDS011;40468;42.128;24.750;2023-05-07T08:22:11;8.65;;;3.65;;
32874;SDS011;40468;42.128;24.750;2023-05-07T08:23:44;5.75;;;3.40;;
32874;SDS011;40468;42.128;24.750;2023-05-07T08:25:16;6.53;;;3.45;;
32874;SDS011;40468;42.128;24.750;2023-05-07T08:26:48;10.35;;;3.65;;
32874;SDS011;40468;42.128;24.750;2023-05-07T08:28:19;7.18;;;3.10;;
32874;SDS011;40468;42.128;24.750;2023-05-07T08:29:52;5.30;;;2.80;;
32874;SDS011;40468;42.128;24.750;2023-05-07T08:31:24;4.53;;;2.95;;
32874;SDS011;40468;42.128;24.750;2023-05-07T08:32:58;4.07;;;2.90;;
32874;SDS011;40468;42.128;24.750;2023-05-07T08:34:31;6.22;;;2.85;;
32874;SDS011;40468;42.128;24.750;2023-05-07T08:36:03;8.90;;;2.85;;
32874;SDS011;40468;42.128;24.750;2023-05-07T08:37:35;4.38;;;2.70;;
32874;SDS011;40468;42.128;24.750;2023-05-07T08:39:07;4.47;;;3.30;;
32874;SDS011;40468;42.128;24.750;2023-05-07T08:40:39;12.05;;;3.88;;
32874;SDS011;40468;42.128;24.750;2023-05-07T08:42:12;9.45;;;3.80;;
32874;SDS011;40468;42.128;24.750;2023-05-07T08:43:47;5.43;;;2.97;;
32874;SDS011;40468;42.128;24.750;2023-05-07T08:45:20;6.65;;;3.80;;
32874;SDS011;40468;42.128;24.750;2023-05-07T08:46:52;8.57;;;3.53;;
32874;SDS011;40468;42.128;24.750;2023-05-07T08:48:29;7.85;;;3.75;;
32874;SDS011;40468;42.128;24.750;2023-05-07T08:50:02;12.27;;;4.13;;
32874;SDS011;40468;42.128;24.750;2023-05-07T08:51:33;6.90;;;3.40;;
32874;SDS011;40468;42.128;24.750;2023-05-07T08:53:05;9.77;;;3.60;;
32874;SDS011;40468;42.128;24.750;2023-05-07T08:54:37;4.43;;;2.95;;
32874;SDS011;40468;42.128;24.750;2023-05-07T08:56:10;11.07;;;3.97;;
32874;SDS011;40468;42.128;24.750;2023-05-07T08:57:43;4.60;;;3.20;;
32874;SDS011;40468;42.128;24.750;2023-05-07T08:59:15;5.30;;;2.90;;
32874;SDS011;40468;42.128;24.750;2023-05-07T09:00:46;5.13;;;2.75;;
32874;SDS011;40468;42.128;24.750;2023-05-07T09:02:18;5.28;;;2.75;;
32874;SDS011;40468;42.128;24.750;2023-05-07T09:03:52;3.30;;;2.42;;
32874;SDS011;40468;42.128;24.750;2023-05-07T09:05:24;10.00;;;2.35;;
32874;SDS011;40468;42.128;24.750;2023-05-07T09:06:56;6.95;;;2.22;;
32874;SDS011;40468;42.128;24.750;2023-05-07T09:08:33;4.47;;;2.40;;
32874;SDS011;40468;42.128;24.750;2023-05-07T09:10:06;5.35;;;2.45;;
32874;SDS011;40468;42.128;24.750;2023-05-07T09:11:38;6.35;;;2.17;;
32874;SDS011;40468;42.128;24.750;2023-05-07T09:13:10;4.57;;;2.20;;
32874;SDS011;40468;42.128;24.750;2023-05-07T09:14:44;4.57;;;2.38;;
32874;SDS011;40468;42.128;24.750;2023-05-07T09:16:17;3.42;;;2.30;;
32874;SDS011;40468;42.128;24.750;2023-05-07T09:17:48;3.90;;;2.28;;